Kinkaid, Illinois
Current Conditions -  °F | °C
As of 4:23 AM on Thursday 23 Oct 2014 (Local Time) from KMDH Reporting Station
Haze Haze  
Wind Chill: 37°   Ceiling: 200
Heat Index: 37°   Visibility: 1.7mi
Dew Point: 36°   Wind: 0mph
Humidity: 96%   Direction: NA
Pressure: 30.22"   Gusts: NA
Location:  37.8835°N, 89.4465°W
Report Text: KMDH 230923Z AUTO 00000KT 1 3/4SM BR OVC002 03/02 A3022 RMK AO2 T00280022 $
Loading
Personal Weather Stations






























Interactive Weather Map
Tropical Storm Tracking
New forecast layout! Learn more

10-Day Weather Forecast

Advertisements
Track Severe Weather on mobile